TAF LETU
METAR LETU
LETU 091000Z AUTO VRB02KT 9999 DZ FEW040 06/05 Q1017=
LETU 090930Z AUTO VRB02KT 9999 -RA SCT044 05/04 Q1017=
LETU 090900Z AUTO 30002KT 9999 -RA BKN046 05/04 Q1018=
LETU 090830Z AUTO 33003KT 9999 DZ SCT039 OVC046 05/04 Q1018=
LETU 090800Z AUTO 32003KT 280V360 9999 -RA BKN045 05/04 Q1017=
WC LETU
WS LETU
WV LETU